Fairbanks, AK

7:13 AM AKDT on August 24, 2016 (GMT -0800)
Ballaine Road & Lynx Lane | | Change Station

Elev 829 ft 64.90 °N, 147.83 °W | Updated 2 minutes ago

Mostly Cloudy
Mostly Cloudy
49.3 °F
Feels Like 49 °F
N
0.0
Wind Variable Wind from West
Gusts 0.0 mph

Today
High -- | Low -- °F
--% Chance of Precip.
Yesterday
High -- | Low -- °F
Precip. -- in
Pressure 30.22 in
Visibility 10.0 miles
Clouds Mostly Cloudy 8000 ft
Mostly Cloudy 18000 ft
Windchill 49 °F
Dew Point 49 °F
Humidity 99%
Rainfall 0.00 in
Snow Depth Not available.
6:08 AM 9:36 PM
Waning Gibbous, 56% visible
METAR PAFA 241453Z 00000KT 10SM BKN080 BKN180 11/10 A3021 RMK AO2 SLP233 T01110100 53011 $
Pressure 30.22 in
Visibility 10.0 miles
Clouds Mostly Cloudy 8000 ft
Mostly Cloudy 18000 ft
Windchill 49 °F
Dew Point 49 °F
Humidity 99%
Rainfall 0.00 in
Snow Depth Not available.
6:08 AM 9:36 PM
Waning Gibbous, 56% visible
METAR PAFA 241453Z 00000KT 10SM BKN080 BKN180 11/10 A3021 RMK AO2 SLP233 T01110100 53011 $

10-Day Weather Forecast

Almanac

Astronomy

Aug. 24, 2016 Rise Set
Actual Time
Civil Twilight
Nautical Twilight
Astronomical Twilight
Moon
Length of Visible Light
Length of Day
Tomorrow will be .
, % of the Moon is Illuminated

Today's Extremes

State Highs State Lows

Community

WunderPhotos

Upload Photos

1,934,616 photos uploaded!

WunderBlog® & News

Nearby

Air Quality

  Air Quality AQ Index Pollutant
Not available.

Snow Depth

Station Depth Elevation

Earthquake Activity

City Distance Mag. Time & Date
Minimum magnitude displayed is 2.5.

Coastal Water Temperatures

Place Temperature

Stations

Nearby Weather Stations

Station Location Temp. Windchill Dew Point Humidity Wind Precip. Elev Updated Type
                   

Watches & Warnings

There are currently no watches in effect.